Time;durP1;ratioP1;P1;durP2;ratioP2;P2;SDS_P1;SDS_P2;PMS_P1;PMS_P2;Temp;Humidity;BMP_temperature;BMP_pressure;BME280_temperature;BME280_humidity;BME280_pressure;Samples;Min_cycle;Max_cycle;Signal;HPM_P1;HPM_P2
2022/07/23 00:01:07;;;;;;;17.95;10.30;;;;;;;15.71;85.35;101755.81;4990798;28;20034;-60
2022/07/23 00:03:32;;;;;;;19.27;10.60;;;;;;;15.66;85.26;101753.19;4990473;28;20022;-60
2022/07/23 00:05:57;;;;;;;18.25;10.77;;;;;;;15.65;85.82;101762.69;4990614;28;20038;-60
2022/07/23 00:08:22;;;;;;;19.15;10.82;;;;;;;15.66;85.69;101760.72;4990743;28;20030;-61
2022/07/23 00:10:48;;;;;;;17.55;10.15;;;;;;;15.60;86.40;101763.66;4990900;28;20092;-61
2022/07/23 00:13:13;;;;;;;17.85;10.70;;;;;;;15.62;86.32;101763.31;4990595;28;20054;-61
2022/07/23 00:15:39;;;;;;;19.40;10.80;;;;;;;15.57;86.61;101758.69;4990518;28;20134;-60
2022/07/23 00:18:04;;;;;;;19.92;10.98;;;;;;;15.54;86.48;101759.31;4990158;28;20354;-60
2022/07/23 00:20:29;;;;;;;17.50;10.75;;;;;;;15.47;87.12;101763.72;4990639;28;20573;-60
2022/07/23 00:22:55;;;;;;;19.58;10.57;;;;;;;15.44;87.22;101763.19;4990513;28;20034;-60
2022/07/23 00:25:22;;;;;;;18.27;10.40;;;;;;;15.42;87.52;101767.47;4990538;28;20042;-60
2022/07/23 00:27:48;;;;;;;17.95;10.80;;;;;;;15.38;87.89;101767.25;4994226;28;20022;-60
2022/07/23 00:30:13;;;;;;;21.30;11.05;;;;;;;15.34;87.70;101757.06;4994442;28;20359;-60
2022/07/23 00:32:50;;;;;;;17.42;10.43;;;;;;;15.28;87.98;101757.19;4976413;28;20092;-60
2022/07/23 00:35:18;;;;;;;17.52;10.23;;;;;;;15.26;87.95;101755.84;4994029;28;20053;-60
2022/07/23 00:37:44;;;;;;;20.13;10.73;;;;;;;15.30;87.67;101756.88;4993820;28;20030;-60
2022/07/23 00:40:10;;;;;;;17.63;10.70;;;;;;;15.23;88.07;101753.69;4994050;28;20431;-61
2022/07/23 00:42:36;;;;;;;19.45;11.52;;;;;;;15.18;88.43;101763.00;4994351;28;20430;-60
2022/07/23 00:45:01;;;;;;;18.95;10.70;;;;;;;15.17;88.42;101752.97;4993655;28;20038;-60
2022/07/23 00:47:26;;;;;;;17.50;10.68;;;;;;;15.20;88.18;101749.56;4993686;28;20117;-60
2022/07/23 00:49:52;;;;;;;19.27;10.98;;;;;;;15.17;87.94;101746.59;4993734;28;20033;-60
2022/07/23 00:52:17;;;;;;;18.35;11.23;;;;;;;15.20;88.06;101757.94;4993609;28;20105;-60
2022/07/23 00:54:42;;;;;;;18.70;11.15;;;;;;;15.12;88.13;101753.13;4993477;28;20113;-60
2022/07/23 00:57:08;;;;;;;18.33;11.38;;;;;;;15.12;88.02;101753.13;4993525;28;20037;-61
2022/07/23 00:59:34;;;;;;;19.80;11.38;;;;;;;15.08;88.02;101752.09;4993699;28;20113;-60
2022/07/23 01:01:59;;;;;;;19.48;11.90;;;;;;;15.04;88.45;101757.47;4993741;28;20431;-60
2022/07/23 01:04:25;;;;;;;18.30;11.25;;;;;;;15.04;88.25;101756.66;4993593;28;20113;-61
2022/07/23 01:06:50;;;;;;;19.65;11.63;;;;;;;14.99;88.39;101749.25;4993750;28;20030;-61
2022/07/23 01:09:15;;;;;;;19.30;11.00;;;;;;;14.92;88.82;101749.66;4993495;28;20620;-61
2022/07/23 01:11:42;;;;;;;19.98;11.73;;;;;;;14.92;88.61;101746.88;4993437;28;20343;-61
2022/07/23 01:14:12;;;;;;;18.83;11.70;;;;;;;14.89;88.51;101747.50;4993829;28;20348;-61
2022/07/23 01:16:37;;;;;;;19.08;11.77;;;;;;;14.82;88.66;101744.31;4993904;28;20463;-61
2022/07/23 01:19:06;;;;;;;18.70;11.82;;;;;;;14.74;89.17;101731.94;4992577;28;20046;-58
2022/07/23 01:21:35;;;;;;;20.52;11.93;;;;;;;14.74;89.48;101742.28;4993817;28;20094;-59
2022/07/23 01:24:01;;;;;;;19.35;11.10;;;;;;;14.72;89.51;101742.59;4975748;28;20026;-59
2022/07/23 01:26:26;;;;;;;19.50;11.70;;;;;;;14.68;89.57;101735.19;4993473;28;20129;-58
2022/07/23 01:28:51;;;;;;;19.13;11.10;;;;;;;14.76;89.32;101740.03;4975746;28;20035;-59
2022/07/23 01:31:17;;;;;;;19.42;11.50;;;;;;;14.74;89.48;101742.28;4993474;28;20109;-58
2022/07/23 01:33:43;;;;;;;19.98;11.50;;;;;;;14.68;89.37;101737.97;4993577;28;20331;-59
2022/07/23 01:36:08;;;;;;;19.58;11.57;;;;;;;14.52;89.98;101724.34;4993044;28;20486;-59
2022/07/23 01:38:34;;;;;;;18.92;12.27;;;;;;;14.60;89.81;101745.06;4993206;28;20037;-59
2022/07/23 01:40:59;;;;;;;19.50;11.95;;;;;;;14.51;89.79;101729.09;4993160;28;20113;-59
2022/07/23 01:43:24;;;;;;;20.10;11.95;;;;;;;14.54;90.06;101729.63;4992801;28;20030;-59
2022/07/23 01:45:50;;;;;;;18.95;12.13;;;;;;;14.51;89.78;101739.38;4993206;28;20038;-59
2022/07/23 01:48:16;;;;;;;19.25;11.98;;;;;;;14.45;90.46;101735.88;4993199;28;20105;-59
2022/07/23 01:50:41;;;;;;;19.75;11.40;;;;;;;14.42;90.43;101736.53;4993449;28;20033;-60
2022/07/23 01:53:07;;;;;;;20.60;12.30;;;;;;;14.40;90.32;101740.75;4993402;28;20022;-59
2022/07/23 01:55:32;;;;;;;20.85;11.88;;;;;;;14.35;90.85;101734.16;4992967;28;20045;-59
2022/07/23 01:57:57;;;;;;;18.73;11.85;;;;;;;14.32;90.49;101731.16;4975389;28;20169;-59
2022/07/23 02:00:23;;;;;;;18.60;11.30;;;;;;;14.31;90.52;101735.09;4992722;28;20046;-59
2022/07/23 02:02:48;;;;;;;19.95;12.13;;;;;;;14.26;90.74;101733.22;4992541;28;20030;-59
2022/07/23 02:05:13;;;;;;;19.88;12.30;;;;;;;14.28;90.83;101733.75;4992634;28;20067;-59
2022/07/23 02:07:39;;;;;;;19.80;12.02;;;;;;;14.28;90.79;101730.97;4992566;28;20033;-60
2022/07/23 02:10:05;;;;;;;20.70;12.30;;;;;;;14.23;90.95;101739.41;4992744;28;20331;-59
2022/07/23 02:12:30;;;;;;;19.42;11.60;;;;;;;14.19;90.91;101730.84;4974979;28;20052;-60
2022/07/23 02:14:55;;;;;;;19.40;11.88;;;;;;;14.16;91.12;101728.72;4992411;28;20073;-60
2022/07/23 02:17:20;;;;;;;18.83;11.98;;;;;;;14.14;91.32;101721.78;4992096;28;20042;-60
2022/07/23 02:19:46;;;;;;;19.75;12.18;;;;;;;14.15;90.94;101726.22;4992355;28;20035;-60
2022/07/23 02:22:11;;;;;;;19.15;11.93;;;;;;;14.11;91.39;101726.00;4992180;28;20029;-60
2022/07/23 02:24:36;;;;;;;19.17;11.45;;;;;;;14.10;91.42;101724.38;4992226;28;20106;-60
2022/07/23 02:27:02;;;;;;;20.42;13.10;;;;;;;14.06;91.62;101730.84;4992128;28;20434;-59
2022/07/23 02:29:27;;;;;;;20.98;12.93;;;;;;;14.06;91.38;101728.06;4992186;28;20101;-59
2022/07/23 02:31:52;;;;;;;20.23;12.93;;;;;;;14.04;91.39;101717.25;4992319;28;20498;-60
2022/07/23 02:34:18;;;;;;;20.65;12.85;;;;;;;13.91;91.59;101705.00;4992122;28;20391;-59
2022/07/23 02:36:43;;;;;;;21.63;13.48;;;;;;;13.99;92.20;101725.69;4992282;28;20438;-59
2022/07/23 02:39:08;;;;;;;20.40;13.52;;;;;;;13.91;92.30;101718.06;4992076;28;20068;-59
2022/07/23 02:41:34;;;;;;;20.15;12.82;;;;;;;13.88;92.53;101725.91;4991816;28;20079;-59
2022/07/23 02:43:59;;;;;;;20.73;13.40;;;;;;;13.88;92.60;101728.69;4991800;28;20033;-59
2022/07/23 02:46:24;;;;;;;20.83;13.48;;;;;;;13.85;92.78;101734.88;4991481;28;20061;-59
2022/07/23 02:48:50;;;;;;;20.15;13.43;;;;;;;13.84;92.70;101736.00;4991274;28;20052;-59
2022/07/23 02:51:15;;;;;;;20.33;12.70;;;;;;;13.85;92.18;101728.47;4991826;28;20088;-59
2022/07/23 02:53:41;;;;;;;20.85;12.95;;;;;;;13.85;92.79;101742.38;4991721;28;20026;-59
2022/07/23 02:56:06;;;;;;;19.70;13.43;;;;;;;13.78;93.27;101736.38;4991653;28;20069;-60
2022/07/23 02:58:31;;;;;;;22.17;13.70;;;;;;;13.76;93.71;101733.91;4991859;28;20077;-60
2022/07/23 03:00:57;;;;;;;19.95;12.93;;;;;;;13.77;93.12;101743.91;4992269;28;20045;-60
2022/07/23 03:03:22;;;;;;;20.02;12.80;;;;;;;13.79;92.95;101730.50;4991986;28;20104;-60
2022/07/23 03:05:48;;;;;;;21.60;13.43;;;;;;;13.74;93.14;101738.97;4991690;28;20391;-58
2022/07/23 03:08:13;;;;;;;20.52;13.88;;;;;;;13.69;93.67;101741.84;4991235;28;20462;-58
2022/07/23 03:10:39;;;;;;;21.35;13.75;;;;;;;13.57;93.81;101733.97;4991621;28;20034;-60
2022/07/23 03:13:04;;;;;;;20.05;13.10;;;;;;;13.58;93.85;101749.53;4990969;28;20381;-60
2022/07/23 03:15:29;;;;;;;23.50;13.60;;;;;;;13.58;93.84;101746.75;4991157;28;20069;-59
2022/07/23 03:17:55;;;;;;;22.58;13.48;;;;;;;13.55;94.07;101752.94;4973459;28;20332;-59
2022/07/23 03:20:20;;;;;;;20.55;13.77;;;;;;;13.53;93.82;101750.44;4991346;28;20097;-59
2022/07/23 03:22:46;;;;;;;19.75;13.45;;;;;;;13.45;94.49;101741.97;4991478;28;20423;-59
2022/07/23 03:25:11;;;;;;;20.92;13.50;;;;;;;13.39;94.78;101753.16;4991474;28;20066;-59
2022/07/23 03:27:36;;;;;;;20.45;13.45;;;;;;;13.36;94.75;101748.22;4973626;28;20026;-60
2022/07/23 03:30:03;;;;;;;21.60;13.63;;;;;;;13.23;95.64;101738.66;4991358;28;20038;-59
2022/07/23 03:32:28;;;;;;;20.98;12.88;;;;;;;13.29;95.34;101747.75;4991103;28;20034;-59
2022/07/23 03:34:53;;;;;;;20.77;13.32;;;;;;;13.29;95.11;101742.19;4991706;28;20137;-59
2022/07/23 03:37:19;;;;;;;22.10;13.80;;;;;;;13.25;95.69;101747.53;4991644;28;20030;-59
2022/07/23 03:39:45;;;;;;;20.73;14.18;;;;;;;13.20;96.11;101752.34;4991514;28;20071;-60
2022/07/23 03:42:10;;;;;;;22.42;14.07;;;;;;;13.14;96.33;101745.22;4991549;28;20157;-60
2022/07/23 03:44:39;;;;;;;21.27;14.55;;;;;;;13.11;96.90;101743.88;4991346;28;20168;-60
2022/07/23 03:47:05;;;;;;;20.30;13.85;;;;;;;13.06;97.17;101744.78;4991057;28;20170;-60
2022/07/23 03:49:32;;;;;;;22.00;14.18;;;;;;;13.02;97.48;101743.72;4991335;28;20030;-60
2022/07/23 03:51:57;;;;;;;20.88;13.82;;;;;;;13.02;97.66;101752.06;4973630;28;20038;-60
2022/07/23 03:54:23;;;;;;;21.92;13.57;;;;;;;13.02;97.99;101763.16;4991358;28;20172;-60
2022/07/23 03:56:48;;;;;;;22.63;14.60;;;;;;;13.02;97.86;101759.56;4991097;28;20074;-59
2022/07/23 03:59:13;;;;;;;20.70;14.02;;;;;;;13.06;97.62;101757.81;4991140;28;20443;-60
2022/07/23 04:01:39;;;;;;;21.00;13.93;;;;;;;13.03;97.63;101748.16;4992793;28;20106;-60
2022/07/23 04:04:04;;;;;;;24.38;15.40;;;;;;;13.06;97.87;101750.34;4995371;28;20022;-60
2022/07/23 04:06:30;;;;;;;22.58;14.40;;;;;;;13.10;97.51;101750.56;4995233;28;20108;-59
2022/07/23 04:08:55;;;;;;;22.10;13.88;;;;;;;13.08;97.82;101748.06;4995383;28;20140;-60
2022/07/23 04:11:21;;;;;;;22.00;14.18;;;;;;;13.15;97.62;101755.22;4995166;28;20022;-60
2022/07/23 04:13:46;;;;;;;21.45;13.95;;;;;;;13.19;97.19;101765.41;4994563;28;20498;-60
2022/07/23 04:16:12;;;;;;;22.13;13.02;;;;;;;13.25;97.16;101760.59;4995898;28;20037;-60
2022/07/23 04:18:37;;;;;;;22.15;13.45;;;;;;;13.32;96.90;101765.78;4994862;28;20069;-60
2022/07/23 04:21:03;;;;;;;21.95;13.20;;;;;;;13.34;96.65;101763.50;4976880;28;20026;-60
2022/07/23 04:23:28;;;;;;;21.52;13.77;;;;;;;13.35;96.15;101766.00;4994670;28;20073;-60
2022/07/23 04:25:53;;;;;;;22.67;13.70;;;;;;;13.29;96.81;101763.59;4994700;28;20121;-60
2022/07/23 04:28:19;;;;;;;22.52;13.73;;;;;;;13.30;96.76;101760.50;4994454;28;20069;-60
2022/07/23 04:30:44;;;;;;;23.08;13.80;;;;;;;13.33;96.33;101764.63;4994450;28;20031;-60
2022/07/23 04:33:09;;;;;;;22.92;13.77;;;;;;;13.31;97.11;101764.13;4994907;28;20046;-59
2022/07/23 04:35:36;;;;;;;21.98;13.35;;;;;;;13.26;97.28;101770.59;4994641;28;20475;-59
2022/07/23 04:38:02;;;;;;;25.30;14.05;;;;;;;13.24;97.10;101778.41;4994621;28;20080;-59
2022/07/23 04:40:28;;;;;;;22.75;14.43;;;;;;;13.25;97.41;101774.50;4994630;28;20068;-60
2022/07/23 04:42:53;;;;;;;22.55;13.85;;;;;;;13.28;97.05;101779.44;4994565;28;20066;-59
2022/07/23 04:45:19;;;;;;;22.80;14.30;;;;;;;13.32;97.53;101783.28;4994258;28;20096;-59
2022/07/23 04:47:44;;;;;;;21.15;13.95;;;;;;;13.42;96.90;101779.53;4976498;28;20113;-59
2022/07/23 04:50:10;;;;;;;21.85;14.50;;;;;;;13.41;96.63;101781.50;4994337;28;20106;-59
2022/07/23 04:52:35;;;;;;;20.63;14.00;;;;;;;13.46;96.71;101786.13;4994442;28;20042;-60
2022/07/23 04:55:00;;;;;;;22.42;13.85;;;;;;;13.50;96.63;101781.63;4976192;28;20030;-59
2022/07/23 04:57:26;;;;;;;23.48;14.55;;;;;;;13.56;96.23;101785.97;4993916;28;20022;-59
2022/07/23 04:59:51;;;;;;;22.73;13.95;;;;;;;13.65;95.95;101793.63;4993696;28;20046;-59
2022/07/23 05:02:16;;;;;;;21.23;13.88;;;;;;;13.71;95.79;101800.72;4993726;28;20315;-59
2022/07/23 05:04:42;;;;;;;21.08;14.23;;;;;;;13.82;95.77;101795.84;4993857;28;20041;-59
2022/07/23 05:07:07;;;;;;;22.42;15.13;;;;;;;13.84;95.32;101783.28;4993804;28;20022;-59
2022/07/23 05:09:32;;;;;;;23.40;14.68;;;;;;;13.84;95.58;101783.28;4993772;28;20034;-59
2022/07/23 05:11:58;;;;;;;23.63;14.40;;;;;;;13.84;96.04;101793.56;4993544;28;20117;-60
2022/07/23 05:14:23;;;;;;;25.48;15.07;;;;;;;13.86;95.96;101799.66;4993879;28;20034;-60
2022/07/23 05:16:48;;;;;;;22.27;13.80;;;;;;;13.94;95.47;101798.13;4993172;28;20092;-60
2022/07/23 05:19:14;;;;;;;24.55;13.65;;;;;;;14.07;94.87;101805.69;4993414;28;20026;-60
2022/07/23 05:21:39;;;;;;;22.02;14.40;;;;;;;14.10;94.55;101796.72;4993478;28;20034;-60
2022/07/23 05:24:05;;;;;;;22.20;14.43;;;;;;;14.13;94.79;101790.53;4993035;28;20026;-60
2022/07/23 05:26:31;;;;;;;22.95;15.15;;;;;;;14.18;94.48;101804.34;4993403;28;20320;-59
2022/07/23 05:28:56;;;;;;;24.27;14.30;;;;;;;14.32;93.92;101812.69;4993201;28;20029;-60
2022/07/23 05:31:21;;;;;;;21.92;14.02;;;;;;;14.38;93.41;101804.28;4993754;28;20521;-60
2022/07/23 05:33:47;;;;;;;23.20;14.15;;;;;;;14.47;93.39;101802.41;4993470;28;20042;-60
2022/07/23 05:36:12;;;;;;;23.30;14.80;;;;;;;14.57;93.28;101806.94;4993318;28;20038;-59
2022/07/23 05:38:37;;;;;;;21.85;14.15;;;;;;;14.64;92.71;101807.38;4993388;28;20022;-59
2022/07/23 05:41:03;;;;;;;23.35;13.93;;;;;;;14.75;91.99;101806.03;4993649;28;20054;-60
2022/07/23 05:43:28;;;;;;;21.75;14.05;;;;;;;14.85;91.50;101804.16;4993029;28;20085;-60
2022/07/23 05:45:53;;;;;;;24.17;14.65;;;;;;;14.91;90.66;101814.88;4975526;28;20034;-59
2022/07/23 05:48:19;;;;;;;23.55;14.75;;;;;;;14.94;90.26;101814.25;4993241;28;20078;-60
2022/07/23 05:50:44;;;;;;;21.83;14.82;;;;;;;14.98;90.09;101811.66;4992837;28;20037;-60
2022/07/23 05:53:09;;;;;;;22.95;14.20;;;;;;;15.04;90.07;101815.97;4975541;28;20030;-59
2022/07/23 05:55:35;;;;;;;24.33;15.32;;;;;;;15.11;90.08;101829.50;4993038;28;20037;-60
2022/07/23 05:58:00;;;;;;;23.98;14.73;;;;;;;15.11;89.90;101821.94;4993161;28;20336;-60
2022/07/23 06:00:27;;;;;;;21.70;14.80;;;;;;;15.18;90.07;101824.31;4993352;28;20037;-60
2022/07/23 06:02:52;;;;;;;22.67;14.85;;;;;;;15.21;89.12;101826.47;4993054;28;20035;-60
2022/07/23 06:05:18;;;;;;;22.80;15.00;;;;;;;15.32;89.49;101824.28;4992913;28;20030;-60
2022/07/23 06:07:43;;;;;;;22.70;15.20;;;;;;;15.46;89.11;101837.34;4993018;28;20030;-60
2022/07/23 06:10:09;;;;;;;22.70;14.48;;;;;;;15.51;87.85;101840.84;4993071;28;20052;-60
2022/07/23 06:12:35;;;;;;;21.83;14.13;;;;;;;15.56;86.78;101840.72;4975527;28;20382;-60
2022/07/23 06:15:00;;;;;;;22.17;14.60;;;;;;;15.60;86.29;101830.59;4992446;28;20030;-60
2022/07/23 06:17:26;;;;;;;20.95;13.52;;;;;;;15.67;85.67;101838.50;4992559;28;20062;-60
2022/07/23 06:19:52;;;;;;;22.70;13.90;;;;;;;15.66;85.80;101838.81;4993091;28;20043;-60
2022/07/23 06:22:18;;;;;;;23.48;13.57;;;;;;;15.67;85.44;101844.09;4992465;28;20070;-60
2022/07/23 06:24:43;;;;;;;22.75;13.48;;;;;;;15.72;85.41;101838.38;4991641;28;20374;-61
2022/07/23 06:27:09;;;;;;;21.75;13.45;;;;;;;15.77;84.76;101845.78;4974727;28;20185;-59
2022/07/23 06:29:34;;;;;;;20.90;13.73;;;;;;;15.76;84.79;101838.56;4992517;28;20026;-59
2022/07/23 06:32:00;;;;;;;23.42;14.43;;;;;;;15.73;85.27;101844.75;4992351;28;20079;-59
2022/07/23 06:34:25;;;;;;;23.60;14.38;;;;;;;15.83;85.51;101840.91;4992190;28;20188;-59
2022/07/23 06:36:50;;;;;;;23.27;14.45;;;;;;;15.90;85.10;101849.69;4992451;28;20103;-59
2022/07/23 06:39:16;;;;;;;22.42;13.93;;;;;;;15.99;84.38;101847.78;4992310;28;20026;-59
2022/07/23 06:41:41;;;;;;;21.55;14.10;;;;;;;16.07;84.63;101851.75;4992196;28;20099;-59
2022/07/23 06:44:07;;;;;;;23.83;13.80;;;;;;;16.16;84.14;101851.78;4992093;28;20458;-59
2022/07/23 06:46:32;;;;;;;22.00;13.35;;;;;;;16.27;83.46;101844.81;4992095;28;20026;-59
2022/07/23 06:48:58;;;;;;;23.55;12.68;;;;;;;16.28;80.18;101859.59;4991440;28;20030;-59
2022/07/23 06:51:23;;;;;;;22.80;11.90;;;;;;;16.32;81.09;101855.00;4991407;28;20482;-59
2022/07/23 06:53:48;;;;;;;20.20;11.50;;;;;;;16.36;80.12;101859.63;4991306;28;20023;-59
2022/07/23 06:56:13;;;;;;;20.73;11.80;;;;;;;16.50;81.10;101850.34;4991692;28;20050;-60
2022/07/23 06:58:39;;;;;;;21.38;12.15;;;;;;;16.57;80.63;101849.88;4991713;28;20521;-60
2022/07/23 07:01:04;;;;;;;20.35;11.77;;;;;;;16.60;79.63;101846.41;4991726;28;20408;-60
2022/07/23 07:03:29;;;;;;;20.52;12.10;;;;;;;16.71;80.98;101846.97;4991601;28;20129;-60
2022/07/23 07:05:57;;;;;;;19.20;10.77;;;;;;;16.79;79.47;101855.34;4974235;28;20493;-60
2022/07/23 07:08:22;;;;;;;21.92;11.18;;;;;;;16.88;79.09;101852.59;4991630;28;20087;-60
2022/07/23 07:10:48;;;;;;;20.35;10.52;;;;;;;16.96;77.78;101849.03;4991785;28;20061;-60
2022/07/23 07:13:13;;;;;;;19.40;10.48;;;;;;;16.98;76.44;101855.13;4991321;28;20431;-60
2022/07/23 07:15:38;;;;;;;19.35;11.50;;;;;;;17.00;76.41;101858.41;4991527;28;20026;-60
2022/07/23 07:18:04;;;;;;;20.92;11.25;;;;;;;17.09;77.34;101850.03;4991265;28;20451;-60
2022/07/23 07:20:29;;;;;;;20.80;11.45;;;;;;;17.13;76.46;101850.19;4991432;28;20126;-60
2022/07/23 07:22:54;;;;;;;18.98;10.60;;;;;;;17.11;74.87;101856.13;4974008;28;20173;-60
2022/07/23 07:25:20;;;;;;;20.52;11.18;;;;;;;17.25;76.03;101839.19;4991357;28;20331;-60
2022/07/23 07:27:45;;;;;;;19.23;11.25;;;;;;;17.33;75.59;101833.94;4991430;28;20112;-60
2022/07/23 07:30:11;;;;;;;19.33;10.85;;;;;;;17.48;75.65;101835.41;4991417;28;20034;-60
2022/07/23 07:32:36;;;;;;;19.17;11.18;;;;;;;17.52;73.22;101839.22;4991658;28;20068;-60
2022/07/23 07:35:06;;;;;;;19.25;9.77;;;;;;;17.54;72.16;101845.28;4991166;28;20454;-60
2022/07/23 07:37:31;;;;;;;19.05;10.18;;;;;;;17.48;70.46;101846.63;4991581;28;20382;-61
2022/07/23 07:39:56;;;;;;;20.65;10.45;;;;;;;17.60;73.38;101855.19;4991497;28;20601;-60
2022/07/23 07:42:22;;;;;;;17.58;10.05;;;;;;;17.74;74.28;101850.22;4991268;28;20446;-60
2022/07/23 07:44:47;;;;;;;18.73;10.20;;;;;;;17.75;72.22;101851.88;4991419;28;20030;-60
2022/07/23 07:47:15;;;;;;;18.40;10.50;;;;;;;17.74;71.00;101861.41;4991211;28;20338;-59
2022/07/23 07:49:40;;;;;;;19.48;11.00;;;;;;;17.89;71.28;101862.06;4991829;28;20125;-59
2022/07/23 07:52:06;;;;;;;18.48;10.10;;;;;;;17.96;70.20;101861.53;4991571;28;20057;-59
2022/07/23 07:54:32;;;;;;;18.58;10.23;;;;;;;18.08;70.18;101850.50;4991558;28;20624;-59
2022/07/23 07:56:57;;;;;;;18.40;11.00;;;;;;;18.11;68.89;101852.66;4991493;28;20486;-59
2022/07/23 07:59:22;;;;;;;20.30;11.02;;;;;;;18.26;68.46;101856.06;4991311;28;20036;-60
2022/07/23 08:01:48;;;;;;;20.90;10.93;;;;;;;18.35;68.33;101857.69;4991281;28;20177;-59
2022/07/23 08:04:13;;;;;;;17.15;9.57;;;;;;;18.36;67.28;101856.53;4991250;28;20057;-60
2022/07/23 08:06:38;;;;;;;17.70;9.85;;;;;;;18.41;68.04;101858.34;4991186;28;20023;-60
2022/07/23 08:09:04;;;;;;;20.77;10.50;;;;;;;18.51;70.01;101852.38;4991153;28;20378;-60
2022/07/23 08:11:29;;;;;;;16.88;9.52;;;;;;;18.58;68.01;101857.41;4990947;28;20034;-60
2022/07/23 08:13:55;;;;;;;18.70;9.30;;;;;;;18.69;67.43;101864.28;4991404;28;20468;-60
2022/07/23 08:16:20;;;;;;;17.42;9.27;;;;;;;18.73;65.91;101858.84;4991382;28;20039;-60
2022/07/23 08:18:46;;;;;;;17.95;9.70;;;;;;;18.73;65.22;101858.03;4991024;28;20050;-60
2022/07/23 08:21:11;;;;;;;15.48;8.80;;;;;;;18.80;64.92;101864.72;4991335;28;20439;-60
2022/07/23 08:23:37;;;;;;;16.92;8.77;;;;;;;18.88;64.63;101871.47;4973508;28;20019;-61
2022/07/23 08:26:02;;;;;;;17.38;9.48;;;;;;;18.80;64.20;101866.72;4990746;28;20168;-60
2022/07/23 08:28:27;;;;;;;14.32;8.52;;;;;;;18.80;64.46;101867.53;4990892;28;20102;-60
2022/07/23 08:30:53;;;;;;;19.40;9.10;;;;;;;18.91;64.30;101879.19;4990990;28;20120;-59
2022/07/23 08:33:18;;;;;;;16.73;9.10;;;;;;;19.05;64.23;101875.34;4991058;28;20074;-60
2022/07/23 08:35:49;;;;;;;17.52;9.50;;;;;;;18.99;63.41;101881.16;4991132;28;20034;-60
2022/07/23 08:38:17;;;;;;;18.30;9.02;;;;;;;19.00;63.29;101879.16;4990839;28;20038;-60
2022/07/23 08:40:45;;;;;;;20.38;9.57;;;;;;;19.00;63.19;101874.41;4990919;28;20041;-60
2022/07/23 08:43:18;;;;;;;16.85;8.55;;;;;;;19.07;63.34;101870.22;4990691;28;20037;-60
2022/07/23 08:45:46;;;;;;;15.75;8.82;;;;;;;19.14;63.71;101874.13;4990978;28;20502;-60
2022/07/23 08:48:13;;;;;;;19.42;9.50;;;;;;;19.20;63.07;101890.75;4993290;28;20041;-60
2022/07/23 08:50:43;;;;;;;18.88;9.80;;;;;;;19.32;64.20;101890.84;4994771;28;20070;-60
2022/07/23 08:53:09;;;;;;;19.52;10.05;;;;;;;19.46;62.38;101885.78;4994967;28;20038;-61
2022/07/23 08:55:34;;;;;;;19.70;10.98;;;;;;;19.63;62.98;101898.03;4994440;28;20022;-60
2022/07/23 08:58:00;;;;;;;19.15;10.40;;;;;;;19.73;61.00;101906.06;4994561;28;20443;-60
2022/07/23 09:00:25;;;;;;;19.48;10.73;;;;;;;19.74;60.47;101898.44;4994813;28;20398;-60
2022/07/23 09:02:51;;;;;;;18.15;10.10;;;;;;;19.96;61.31;101894.47;4994629;28;20105;-61
2022/07/23 09:05:17;;;;;;;20.88;11.00;;;;;;;20.06;59.04;101893.22;4993975;28;20053;-60
2022/07/23 09:08:04;;;;;;;20.65;10.43;;;;;;;20.21;60.88;101894.56;4994181;28;20080;-61
2022/07/23 09:10:29;;;;;;;18.10;10.35;;;;;;;20.34;58.36;101890.59;4994186;28;20026;-60
2022/07/23 09:12:55;;;;;;;18.95;10.82;;;;;;;20.49;58.53;101893.91;4994137;28;20045;-60
2022/07/23 09:15:20;;;;;;;18.73;11.35;;;;;;;20.49;58.88;101894.72;4994283;28;20061;-61
2022/07/23 09:17:45;;;;;;;19.10;11.38;;;;;;;20.37;59.30;101895.53;4993806;28;20050;-60
2022/07/23 09:20:16;;;;;;;20.10;11.43;;;;;;;20.34;60.78;101884.97;4993840;28;20454;-60
2022/07/23 09:22:46;;;;;;;18.95;11.25;;;;;;;20.58;58.88;101886.19;4993742;28;20037;-61
2022/07/23 09:25:19;;;;;;;19.25;10.90;;;;;;;20.79;60.32;101872.06;4993641;28;20018;-60
2022/07/23 09:27:55;;;;;;;21.13;11.35;;;;;;;20.92;58.32;101886.13;4993663;28;20035;-60
2022/07/23 09:30:23;;;;;;;20.15;11.52;;;;;;;20.85;57.16;101881.88;4976191;28;20030;-59
2022/07/23 09:33:20;;;;;;;20.48;11.10;;;;;;;20.85;57.49;101862.19;4993731;28;20117;-60
2022/07/23 09:35:56;;;;;;;18.33;10.40;;;;;;;20.94;58.80;101866.88;4993946;28;20056;-61
2022/07/23 09:38:23;;;;;;;20.40;11.20;;;;;;;20.95;55.58;101871.34;4975867;28;20444;-60
2022/07/23 09:41:07;;;;;;;18.65;10.50;;;;;;;20.84;56.34;101882.25;4994099;28;20087;-59
2022/07/23 09:43:33;;;;;;;18.98;10.65;;;;;;;20.77;55.78;101880.00;4993916;28;20114;-60
2022/07/23 09:46:26;;;;;;;18.52;10.45;;;;;;;20.80;54.03;101878.47;4993718;28;20411;-60
2022/07/23 09:48:52;;;;;;;18.73;10.30;;;;;;;20.85;55.22;101876.25;4993839;28;20034;-60
2022/07/23 09:51:36;;;;;;;19.55;10.43;;;;;;;20.94;54.95;101880.94;4994092;28;20081;-60
2022/07/23 09:54:02;;;;;;;;;;;;;;;21.21;55.54;101890.66;4993792;28;20413;-60
2022/07/23 09:56:28;;;;;;;19.55;10.77;;;;;;;21.20;53.34;101891.81;4993438;28;19920;-61
2022/07/23 09:59:12;;;;;;;17.58;10.27;;;;;;;21.20;53.59;101889.00;4991852;28;20034;-58
2022/07/23 10:01:38;;;;;;;18.17;9.70;;;;;;;21.38;52.80;101889.56;4993259;28;20027;-60
2022/07/23 10:04:06;;;;;;;18.73;9.60;;;;;;;21.34;51.25;101878.22;4992909;28;20470;-60
2022/07/23 10:06:31;;;;;;;16.63;9.15;;;;;;;21.50;50.84;101886.69;4975195;28;20164;-60
2022/07/23 10:08:59;;;;;;;18.00;10.00;;;;;;;21.63;51.39;101876.25;4975281;28;20026;-60
2022/07/23 10:11:26;;;;;;;18.20;10.15;;;;;;;21.75;51.07;101880.19;4993284;28;20103;-61
2022/07/23 10:13:58;;;;;;;17.92;10.45;;;;;;;21.83;50.96;101875.59;4975106;28;20439;-60
2022/07/23 10:16:24;;;;;;;17.60;10.10;;;;;;;21.85;51.13;101879.69;4993058;28;20125;-60
2022/07/23 10:18:49;;;;;;;17.75;10.30;;;;;;;22.03;52.35;101879.38;4992265;28;20144;-60
2022/07/23 10:21:47;;;;;;;19.95;10.68;;;;;;;22.16;53.58;101883.75;4992433;28;20027;-61
2022/07/23 10:24:45;;;;;;;18.65;10.75;;;;;;;22.12;52.95;101880.00;4992545;28;20066;-60
2022/07/23 10:27:32;;;;;;;19.27;11.05;;;;;;;21.78;52.85;101887.94;4992388;28;20049;-60
2022/07/23 10:30:29;;;;;;;19.52;10.50;;;;;;;21.88;53.38;101890.25;4992412;28;20026;-60
2022/07/23 10:33:19;;;;;;;19.08;10.40;;;;;;;21.90;52.28;101887.91;4970555;28;20446;-60
2022/07/23 10:35:54;;;;;;;18.90;10.13;;;;;;;21.77;51.29;101884.28;4992514;28;20041;-60
2022/07/23 10:38:29;;;;;;;17.48;9.70;;;;;;;21.88;50.37;101883.78;4992385;28;20024;-61
2022/07/23 10:40:58;;;;;;;19.00;10.05;;;;;;;21.82;49.57;101874.78;4992150;28;20110;-61
2022/07/23 10:43:24;;;;;;;17.60;10.10;;;;;;;22.10;50.59;101882.41;4992473;28;20030;-60
2022/07/23 10:45:50;;;;;;;18.55;10.45;;;;;;;22.07;51.02;101880.28;4992279;28;20085;-61
2022/07/23 10:48:21;;;;;;;19.73;10.60;;;;;;;22.06;50.52;101882.28;4992200;28;20366;-60
2022/07/23 10:51:08;;;;;;;19.17;10.30;;;;;;;22.18;51.06;101878.59;4992478;28;20105;-60
2022/07/23 10:53:51;;;;;;;17.55;9.73;;;;;;;22.49;51.99;101877.00;4992367;28;20028;-60
2022/07/23 10:56:37;;;;;;;18.48;10.30;;;;;;;22.50;50.36;101883.47;4991829;28;20161;-60
2022/07/23 10:59:04;;;;;;;18.67;10.25;;;;;;;22.59;50.01;101878.47;4992304;28;20030;-61
2022/07/23 11:01:37;;;;;;;19.65;10.90;;;;;;;22.70;49.43;101867.44;4992294;28;20058;-61
2022/07/23 11:04:07;;;;;;;;;;;;;;;22.94;50.72;101874.88;4975070;28;20394;-61
2022/07/23 11:06:48;;;;;;;17.95;9.90;;;;;;;23.04;50.82;101874.31;4991710;28;20329;-61
2022/07/23 11:09:30;;;;;;;17.58;9.90;;;;;;;23.04;48.79;101887.59;4991942;28;20450;-60
2022/07/23 11:12:13;;;;;;;17.73;10.00;;;;;;;;;;4991566;28;20098;-61